createdAt,value
2022-12-09T00:01:12.640Z,8.90
2022-12-09T00:03:40.273Z,8.55
2022-12-09T00:06:08.735Z,9.82
2022-12-09T00:08:36.383Z,9.27
2022-12-09T00:11:04.131Z,10.32
2022-12-09T00:13:31.662Z,9.00
2022-12-09T00:16:00.652Z,10.50
2022-12-09T00:18:28.389Z,9.85
2022-12-09T00:20:56.079Z,9.65
2022-12-09T00:23:23.740Z,9.60
2022-12-09T00:25:51.208Z,10.20
2022-12-09T00:28:18.651Z,10.32
2022-12-09T00:30:46.374Z,10.93
2022-12-09T00:33:15.249Z,8.95
2022-12-09T00:35:42.778Z,11.20
2022-12-09T00:38:10.466Z,10.30
2022-12-09T00:40:38.010Z,10.52
2022-12-09T00:43:05.456Z,10.30
2022-12-09T00:45:33.142Z,9.98
2022-12-09T00:48:00.636Z,11.13
2022-12-09T00:50:32.469Z,10.50
2022-12-09T00:53:00.163Z,9.65
2022-12-09T00:55:27.762Z,10.75
2022-12-09T00:57:55.549Z,10.88
2022-12-09T01:00:23.059Z,10.77
2022-12-09T01:02:50.862Z,11.23
2022-12-09T01:05:18.848Z,11.32
2022-12-09T01:07:48.006Z,12.77
2022-12-09T01:10:15.989Z,10.85
2022-12-09T01:12:43.580Z,12.57
2022-12-09T01:15:11.414Z,12.05
2022-12-09T01:17:39.242Z,12.02
2022-12-09T01:20:09.719Z,11.25
2022-12-09T01:22:37.524Z,10.52
2022-12-09T01:25:07.167Z,12.07
2022-12-09T01:27:34.655Z,12.05
2022-12-09T01:30:02.182Z,11.77
2022-12-09T01:32:29.785Z,10.73
2022-12-09T01:34:57.531Z,12.45
2022-12-09T01:37:25.407Z,11.27
2022-12-09T01:39:53.228Z,11.70
2022-12-09T01:42:22.889Z,11.20
2022-12-09T01:45:30.637Z,12.65
2022-12-09T01:48:01.631Z,12.30
2022-12-09T01:50:29.457Z,10.65
2022-12-09T01:52:57.345Z,12.98
2022-12-09T01:55:25.205Z,11.68
2022-12-09T01:57:54.137Z,11.75
2022-12-09T02:00:22.302Z,12.82
2022-12-09T02:02:50.504Z,12.82
2022-12-09T02:05:18.719Z,11.90
2022-12-09T02:07:46.467Z,11.73
2022-12-09T02:10:15.269Z,11.35
2022-12-09T02:12:46.666Z,11.52
2022-12-09T02:15:18.110Z,12.23
2022-12-09T02:17:47.459Z,11.52
2022-12-09T02:20:16.904Z,11.40
2022-12-09T02:22:45.861Z,11.70
2022-12-09T02:25:19.247Z,11.57
2022-12-09T02:27:49.646Z,11.30
2022-12-09T02:30:19.945Z,11.43
2022-12-09T02:35:36.524Z,10.45
2022-12-09T02:38:07.357Z,10.18
2022-12-09T02:40:36.612Z,10.48
2022-12-09T02:43:04.645Z,11.80
2022-12-09T02:45:32.317Z,10.60
2022-12-09T02:48:01.179Z,10.80
2022-12-09T02:50:30.536Z,11.38
2022-12-09T02:53:00.685Z,10.25
2022-12-09T02:55:28.158Z,11.52
2022-12-09T02:57:57.711Z,10.48
2022-12-09T03:00:25.436Z,11.50
2022-12-09T03:02:54.939Z,10.65
2022-12-09T03:05:24.539Z,10.60
2022-12-09T03:07:56.319Z,11.32
2022-12-09T03:10:27.069Z,11.10
2022-12-09T03:12:57.981Z,10.82
2022-12-09T03:15:26.990Z,10.95
2022-12-09T03:17:54.864Z,10.50
2022-12-09T03:20:23.871Z,10.05
2022-12-09T03:22:51.374Z,11.63
2022-12-09T03:25:20.080Z,10.70
2022-12-09T03:27:51.515Z,11.63
2022-12-09T03:30:19.252Z,10.68
2022-12-09T03:32:47.113Z,11.98
2022-12-09T03:35:16.685Z,10.90
2022-12-09T03:37:44.117Z,12.07
2022-12-09T03:40:14.372Z,12.05
2022-12-09T03:42:45.484Z,11.95
2022-12-09T03:45:14.261Z,12.68
2022-12-09T03:47:41.882Z,11.60
2022-12-09T03:50:10.535Z,11.32
2022-12-09T03:52:39.156Z,11.05
2022-12-09T03:55:10.008Z,11.88
2022-12-09T03:57:38.185Z,11.50
2022-12-09T04:00:07.565Z,11.50
2022-12-09T04:02:37.224Z,11.65
2022-12-09T04:05:05.997Z,11.52
2022-12-09T04:07:33.663Z,11.48
2022-12-09T04:10:01.269Z,10.90
2022-12-09T04:12:29.097Z,11.73
2022-12-09T04:14:56.926Z,11.45
2022-12-09T04:17:24.817Z,11.40
2022-12-09T04:19:53.653Z,10.45
2022-12-09T04:22:21.293Z,11.20
2022-12-09T04:24:48.759Z,12.15
2022-12-09T04:27:16.348Z,12.27
2022-12-09T04:29:44.092Z,11.60
2022-12-09T04:32:11.894Z,12.35
2022-12-09T04:34:39.477Z,12.48
2022-12-09T04:37:08.274Z,12.23
2022-12-09T04:39:36.107Z,12.38
2022-12-09T04:42:03.967Z,11.38
2022-12-09T04:44:31.631Z,12.93
2022-12-09T04:46:59.300Z,12.63
2022-12-09T04:49:26.886Z,11.93
2022-12-09T04:51:54.605Z,12.18
2022-12-09T04:54:23.540Z,12.55
2022-12-09T04:56:51.028Z,12.18
2022-12-09T04:59:18.723Z,12.82
2022-12-09T05:01:46.456Z,12.45
2022-12-09T05:04:14.344Z,12.63
2022-12-09T05:06:42.550Z,11.85
2022-12-09T05:09:12.298Z,12.63
2022-12-09T05:11:41.594Z,12.20
2022-12-09T05:14:09.562Z,12.60
2022-12-09T05:16:37.280Z,11.18
2022-12-09T05:19:04.958Z,12.70
2022-12-09T05:21:33.025Z,11.77
2022-12-09T05:24:02.449Z,12.93
2022-12-09T05:26:30.099Z,13.25
2022-12-09T05:28:59.029Z,11.63
2022-12-09T05:31:26.893Z,11.75
2022-12-09T05:33:54.793Z,12.60
2022-12-09T05:36:24.746Z,11.77
2022-12-09T05:38:53.234Z,11.57
2022-12-09T05:41:21.115Z,11.48
2022-12-09T05:43:48.958Z,11.32
2022-12-09T05:46:18.140Z,12.25
2022-12-09T05:48:46.032Z,11.13
2022-12-09T05:51:16.145Z,10.60
2022-12-09T05:53:43.832Z,11.18
2022-12-09T05:56:11.524Z,10.43
2022-12-09T05:58:39.230Z,10.77
2022-12-09T06:01:08.267Z,13.45
2022-12-09T06:03:37.888Z,11.68
2022-12-09T06:06:07.429Z,10.60
2022-12-09T06:08:35.484Z,12.13
2022-12-09T06:11:03.327Z,11.80
2022-12-09T06:13:30.945Z,13.23
2022-12-09T06:16:03.578Z,11.27
2022-12-09T06:18:31.300Z,12.10
2022-12-09T06:21:00.400Z,11.65
2022-12-09T06:23:28.189Z,12.45
2022-12-09T06:25:56.081Z,21.20
2022-12-09T06:28:23.915Z,17.80
2022-12-09T06:30:51.780Z,16.35
2022-12-09T06:33:52.496Z,16.13
2022-12-09T06:36:09.076Z,13.57
2022-12-09T06:38:37.050Z,19.98
2022-12-09T06:41:07.600Z,16.00
2022-12-09T06:43:35.267Z,16.13
2022-12-09T06:46:03.156Z,16.58
2022-12-09T06:48:30.869Z,13.52
2022-12-09T06:50:58.691Z,15.38
2022-12-09T06:53:27.736Z,12.57
2022-12-09T06:55:55.273Z,11.40
2022-12-09T06:58:22.799Z,10.90
2022-12-09T07:00:51.050Z,11.98
2022-12-09T07:03:19.023Z,13.60
2022-12-09T07:05:47.224Z,10.20
2022-12-09T07:08:14.924Z,10.40
2022-12-09T07:10:48.137Z,8.95
2022-12-09T07:13:19.430Z,11.82
2022-12-09T07:15:47.315Z,29.30
2022-12-09T07:18:15.296Z,18.83
2022-12-09T07:20:42.905Z,14.43
2022-12-09T07:23:11.396Z,13.23
2022-12-09T07:25:39.016Z,11.43
2022-12-09T07:28:07.999Z,13.25
2022-12-09T07:30:38.522Z,13.95
2022-12-09T07:33:06.342Z,14.10
2022-12-09T07:35:34.031Z,10.88
2022-12-09T07:38:02.425Z,10.77
2022-12-09T07:40:30.226Z,14.20
2022-12-09T07:42:59.925Z,10.15
2022-12-09T07:45:29.336Z,12.45
2022-12-09T07:47:56.927Z,9.87
2022-12-09T07:50:24.672Z,9.60
2022-12-09T07:52:52.534Z,9.18
2022-12-09T07:55:20.322Z,8.57
2022-12-09T07:57:48.028Z,8.85
2022-12-09T08:00:17.158Z,8.63
2022-12-09T08:02:46.403Z,8.35
2022-12-09T08:05:14.714Z,8.40
2022-12-09T08:07:44.849Z,7.45
2022-12-09T08:10:13.265Z,8.13
2022-12-09T08:12:40.828Z,8.05
2022-12-09T08:15:09.511Z,7.65
2022-12-09T08:17:37.449Z,7.18
2022-12-09T08:20:08.378Z,7.43
2022-12-09T08:22:36.379Z,7.53
2022-12-09T08:25:04.088Z,7.03
2022-12-09T08:27:32.500Z,6.80
2022-12-09T08:30:00.741Z,8.80
2022-12-09T08:32:28.680Z,6.63
2022-12-09T08:34:56.829Z,6.95
2022-12-09T08:37:25.954Z,6.82
2022-12-09T08:39:53.441Z,6.03
2022-12-09T08:42:21.228Z,6.55
2022-12-09T08:44:51.231Z,6.18
2022-12-09T08:47:20.523Z,6.53
2022-12-09T08:49:48.236Z,6.85
2022-12-09T08:52:15.845Z,5.78
2022-12-09T08:54:44.983Z,7.75
2022-12-09T08:57:12.538Z,12.83
2022-12-09T08:59:44.957Z,6.97
2022-12-09T09:02:12.915Z,6.38
2022-12-09T09:04:41.281Z,6.97
2022-12-09T09:07:09.129Z,6.85
2022-12-09T09:09:37.150Z,6.15
2022-12-09T09:12:06.887Z,7.72
2022-12-09T09:14:34.900Z,8.95
2022-12-09T09:17:02.729Z,9.43
2022-12-09T09:19:31.697Z,7.10
2022-12-09T09:21:59.284Z,7.28
2022-12-09T09:24:27.262Z,6.45
2022-12-09T09:26:56.114Z,7.00
2022-12-09T09:29:25.482Z,7.20
2022-12-09T09:31:54.999Z,4.33
2022-12-09T09:34:23.125Z,6.88
2022-12-09T09:36:51.203Z,7.68
2022-12-09T09:39:19.277Z,6.40
2022-12-09T09:41:51.121Z,5.75
2022-12-09T09:44:23.463Z,5.90
2022-12-09T09:46:53.491Z,8.15
2022-12-09T09:51:52.039Z,6.22
2022-12-09T09:54:19.667Z,7.70
2022-12-09T09:56:53.165Z,6.07
2022-12-09T09:59:25.509Z,7.28
2022-12-09T10:02:00.135Z,6.85
2022-12-09T10:04:33.562Z,6.30
2022-12-09T10:07:07.102Z,7.10
2022-12-09T10:09:39.358Z,5.78
2022-12-09T10:12:12.110Z,8.07
2022-12-09T10:14:43.814Z,7.90
2022-12-09T10:17:28.397Z,6.43
2022-12-09T10:19:58.447Z,5.68
2022-12-09T10:22:29.797Z,5.95
2022-12-09T10:24:59.026Z,5.80
2022-12-09T10:27:30.586Z,5.40
2022-12-09T10:29:59.999Z,5.25
2022-12-09T10:32:30.742Z,6.53
2022-12-09T10:34:58.489Z,5.03
2022-12-09T10:37:29.981Z,4.72
2022-12-09T10:40:15.466Z,5.30
2022-12-09T10:43:02.982Z,6.97
2022-12-09T10:45:46.015Z,5.25
2022-12-09T10:48:25.525Z,4.90
2022-12-09T10:50:56.769Z,5.00
2022-12-09T10:53:24.604Z,5.45
2022-12-09T10:55:53.239Z,4.75
2022-12-09T10:58:21.814Z,5.18
2022-12-09T11:01:07.130Z,4.82
2022-12-09T11:03:37.159Z,5.68
2022-12-09T11:06:23.539Z,4.80
2022-12-09T11:08:53.515Z,4.32
2022-12-09T11:11:21.705Z,5.18
2022-12-09T11:13:49.392Z,4.53
2022-12-09T11:16:17.370Z,4.93
2022-12-09T11:18:48.132Z,4.20
2022-12-09T11:21:32.482Z,5.18
2022-12-09T11:24:03.491Z,5.28
2022-12-09T11:26:37.574Z,5.30
2022-12-09T11:29:07.479Z,5.18
2022-12-09T11:31:38.358Z,5.70
2022-12-09T11:34:18.116Z,5.57
2022-12-09T11:36:48.604Z,5.60
2022-12-09T11:39:23.071Z,6.25
2022-12-09T11:42:16.628Z,5.40
2022-12-09T11:44:51.613Z,6.10
2022-12-09T11:47:22.506Z,5.30
2022-12-09T11:49:53.603Z,5.85
2022-12-09T11:52:26.617Z,5.55
2022-12-09T11:55:13.085Z,5.22
2022-12-09T11:57:44.494Z,5.57
2022-12-09T12:00:21.100Z,6.00
2022-12-09T12:02:51.899Z,4.95
2022-12-09T12:05:23.610Z,5.05
2022-12-09T12:07:57.595Z,4.95
2022-12-09T12:10:26.383Z,5.40
2022-12-09T12:13:01.621Z,5.03
2022-12-09T12:15:33.184Z,4.90
2022-12-09T12:18:01.270Z,5.00
2022-12-09T12:20:39.986Z,5.07
2022-12-09T12:23:16.644Z,5.45
2022-12-09T12:25:49.216Z,5.05
2022-12-09T12:28:23.409Z,4.85
2022-12-09T12:30:54.407Z,4.82
2022-12-09T12:36:22.581Z,5.25
2022-12-09T12:39:01.500Z,4.68
2022-12-09T12:41:32.981Z,5.20
2022-12-09T12:44:23.397Z,4.47
2022-12-09T12:46:57.315Z,4.65
2022-12-09T12:49:36.605Z,4.90
2022-12-09T12:52:26.335Z,4.77
2022-12-09T12:55:00.858Z,4.60
2022-12-09T12:57:30.809Z,4.53
2022-12-09T13:00:00.077Z,5.15
2022-12-09T13:02:34.638Z,4.80
2022-12-09T13:05:04.273Z,4.40
2022-12-09T13:07:36.530Z,4.80
2022-12-09T13:10:05.906Z,4.82
2022-12-09T13:12:53.397Z,4.70
2022-12-09T13:15:22.379Z,4.78
2022-12-09T13:17:49.808Z,4.38
2022-12-09T13:20:20.145Z,5.03
2022-12-09T13:22:52.560Z,4.25
2022-12-09T13:25:23.540Z,4.88
2022-12-09T13:27:53.176Z,5.10
2022-12-09T13:30:21.491Z,4.32
2022-12-09T13:32:59.427Z,5.35
2022-12-09T13:35:30.890Z,5.13
2022-12-09T13:38:00.494Z,4.70
2022-12-09T13:40:35.177Z,4.50
2022-12-09T13:43:22.355Z,4.68
2022-12-09T13:45:51.867Z,4.65
2022-12-09T13:48:47.308Z,4.88
2022-12-09T13:51:15.112Z,5.22
2022-12-09T13:53:47.101Z,4.90
2022-12-09T13:56:23.629Z,6.13
2022-12-09T13:59:01.524Z,4.60
2022-12-09T14:01:31.114Z,5.00
2022-12-09T14:04:04.357Z,4.72
2022-12-09T14:06:33.460Z,4.72
2022-12-09T14:09:03.893Z,5.50
2022-12-09T14:11:47.180Z,4.80
2022-12-09T14:14:37.635Z,5.00
2022-12-09T14:17:17.114Z,4.72
2022-12-09T14:19:56.274Z,5.57
2022-12-09T14:22:34.431Z,5.55
2022-12-09T14:25:34.337Z,4.60
2022-12-09T14:28:25.831Z,4.90
2022-12-09T14:30:55.154Z,5.05
2022-12-09T14:33:22.874Z,4.85
2022-12-09T14:35:51.281Z,4.95
2022-12-09T14:38:22.171Z,4.65
2022-12-09T14:40:53.389Z,4.97
2022-12-09T14:43:44.540Z,6.07
2022-12-09T14:46:23.306Z,5.03
2022-12-09T14:48:53.887Z,5.72
2022-12-09T14:51:23.568Z,5.47
2022-12-09T14:53:52.841Z,5.68
2022-12-09T14:58:42.259Z,6.40
2022-12-09T15:01:09.766Z,7.22
2022-12-09T15:03:45.367Z,7.75
2022-12-09T15:06:17.419Z,7.65
2022-12-09T15:08:44.982Z,7.32
2022-12-09T15:11:14.484Z,7.20
2022-12-09T15:13:46.124Z,8.18
2022-12-09T15:16:14.707Z,7.07
2022-12-09T15:18:42.858Z,6.80
2022-12-09T15:21:10.337Z,7.35
2022-12-09T15:23:39.327Z,6.78
2022-12-09T15:26:08.908Z,8.40
2022-12-09T15:28:37.128Z,6.60
2022-12-09T15:31:07.722Z,7.47
2022-12-09T15:33:40.542Z,7.05
2022-12-09T15:36:09.884Z,6.88
2022-12-09T15:38:41.434Z,6.68
2022-12-09T15:41:27.080Z,6.97
2022-12-09T15:43:55.298Z,6.40
2022-12-09T15:46:24.255Z,7.15
2022-12-09T15:48:54.683Z,6.95
2022-12-09T15:51:22.924Z,6.63
2022-12-09T15:53:55.321Z,6.45
2022-12-09T15:56:24.625Z,6.78
2022-12-09T15:58:53.114Z,6.60
2022-12-09T16:01:21.104Z,6.78
2022-12-09T16:03:50.720Z,5.82
2022-12-09T16:06:18.160Z,6.45
2022-12-09T16:08:45.610Z,6.47
2022-12-09T16:11:13.083Z,6.40
2022-12-09T16:13:58.021Z,7.05
2022-12-09T16:16:27.379Z,6.68
2022-12-09T16:18:56.530Z,6.70
2022-12-09T16:21:26.872Z,6.75
2022-12-09T16:23:56.243Z,7.10
2022-12-09T16:26:28.160Z,6.88
2022-12-09T16:28:59.626Z,6.57
2022-12-09T16:31:27.146Z,6.57
2022-12-09T16:33:55.970Z,6.05
2022-12-09T16:36:25.833Z,6.40
2022-12-09T16:39:32.559Z,7.28
2022-12-09T16:42:01.623Z,6.22
2022-12-09T16:44:31.738Z,6.63
2022-12-09T16:47:13.357Z,6.40
2022-12-09T16:49:43.093Z,6.07
2022-12-09T16:52:12.500Z,6.65
2022-12-09T16:54:39.944Z,6.70
2022-12-09T16:57:07.410Z,7.07
2022-12-09T16:59:38.043Z,6.53
2022-12-09T17:02:10.235Z,5.82
2022-12-09T17:04:37.688Z,5.95
2022-12-09T17:07:06.446Z,6.00
2022-12-09T17:09:33.887Z,7.28
2022-12-09T17:12:01.355Z,6.35
2022-12-09T17:14:29.012Z,6.45
2022-12-09T17:16:56.468Z,6.57
2022-12-09T17:19:23.932Z,6.05
2022-12-09T17:21:52.294Z,7.32
2022-12-09T17:24:21.525Z,6.25
2022-12-09T17:26:48.972Z,6.17
2022-12-09T17:29:16.413Z,6.07
2022-12-09T17:31:43.897Z,6.13
2022-12-09T17:34:11.345Z,6.57
2022-12-09T17:36:38.933Z,5.75
2022-12-09T17:39:07.234Z,5.65
2022-12-09T17:41:35.991Z,6.15
2022-12-09T17:44:03.464Z,6.68
2022-12-09T17:46:30.989Z,7.13
2022-12-09T17:49:00.122Z,6.30
2022-12-09T17:51:31.004Z,6.25
2022-12-09T17:54:02.978Z,6.05
2022-12-09T17:56:30.490Z,6.82
2022-12-09T17:59:02.531Z,6.63
2022-12-09T18:01:30.126Z,5.82
2022-12-09T18:04:01.598Z,6.40
2022-12-09T18:06:34.099Z,6.93
2022-12-09T18:09:01.958Z,6.47
2022-12-09T18:11:29.428Z,6.13
2022-12-09T18:13:56.847Z,5.85
2022-12-09T18:16:25.653Z,6.57
2022-12-09T18:18:53.288Z,6.05
2022-12-09T18:21:20.861Z,6.50
2022-12-09T18:23:48.600Z,6.30
2022-12-09T18:26:17.652Z,7.18
2022-12-09T18:28:45.149Z,6.68
2022-12-09T18:31:14.728Z,6.60
2022-12-09T18:33:43.591Z,7.03
2022-12-09T18:36:16.536Z,6.18
2022-12-09T18:38:44.043Z,7.38
2022-12-09T18:41:11.863Z,6.20
2022-12-09T18:43:40.291Z,7.03
2022-12-09T18:46:09.008Z,6.45
2022-12-09T18:48:36.547Z,6.35
2022-12-09T18:51:08.406Z,6.63
2022-12-09T18:53:35.893Z,7.03
2022-12-09T18:56:04.820Z,7.05
2022-12-09T18:59:04.340Z,7.22
2022-12-09T19:01:20.727Z,6.38
2022-12-09T19:03:48.299Z,6.70
2022-12-09T19:06:21.924Z,6.70
2022-12-09T19:08:53.457Z,6.28
2022-12-09T19:11:21.850Z,7.50
2022-12-09T19:13:49.367Z,7.60
2022-12-09T19:16:16.879Z,6.85
2022-12-09T19:18:44.384Z,8.70
2022-12-09T19:21:12.300Z,7.00
2022-12-09T19:23:41.687Z,8.18
2022-12-09T19:26:12.059Z,7.60
2022-12-09T19:28:39.567Z,7.82
2022-12-09T19:31:14.620Z,7.30
2022-12-09T19:33:42.155Z,7.72
2022-12-09T19:36:10.383Z,8.00
2022-12-09T19:38:37.828Z,7.78
2022-12-09T19:41:06.893Z,9.10
2022-12-09T19:43:34.453Z,7.80
2022-12-09T19:46:06.403Z,7.65
2022-12-09T19:48:35.715Z,7.82
2022-12-09T19:51:04.632Z,8.20
2022-12-09T19:53:33.537Z,9.02
2022-12-09T19:56:02.229Z,8.57
2022-12-09T19:58:31.158Z,8.02
2022-12-09T20:00:58.768Z,8.75
2022-12-09T20:03:26.295Z,8.35
2022-12-09T20:05:54.408Z,8.05
2022-12-09T20:08:23.030Z,7.72
2022-12-09T20:10:50.492Z,7.30
2022-12-09T20:13:18.047Z,7.53
2022-12-09T20:15:46.785Z,7.15
2022-12-09T20:18:15.033Z,7.32
2022-12-09T20:20:48.689Z,7.43
2022-12-09T20:23:16.532Z,8.65
2022-12-09T20:25:43.976Z,7.57
2022-12-09T20:28:11.445Z,7.80
2022-12-09T20:30:38.914Z,7.65
2022-12-09T20:33:07.708Z,7.45
2022-12-09T20:35:36.497Z,7.53
2022-12-09T20:38:03.958Z,6.88
2022-12-09T20:40:31.457Z,7.00
2022-12-09T20:42:58.903Z,7.55
2022-12-09T20:45:26.375Z,7.22
2022-12-09T20:47:53.819Z,6.63
2022-12-09T20:50:22.579Z,6.70
2022-12-09T20:52:50.035Z,6.30
2022-12-09T20:55:17.827Z,5.72
2022-12-09T20:57:45.272Z,6.70
2022-12-09T21:00:13.868Z,6.20
2022-12-09T21:02:41.339Z,6.72
2022-12-09T21:05:09.488Z,5.68
2022-12-09T21:07:38.322Z,6.63
2022-12-09T21:10:07.010Z,6.72
2022-12-09T21:12:35.070Z,5.82
2022-12-09T21:15:02.509Z,6.65
2022-12-09T21:17:29.981Z,5.95
2022-12-09T21:19:57.416Z,6.55
2022-12-09T21:22:25.250Z,7.00
2022-12-09T21:24:54.137Z,6.70
2022-12-09T21:27:21.599Z,6.68
2022-12-09T21:29:49.054Z,7.38
2022-12-09T21:32:16.495Z,6.88
2022-12-09T21:34:43.942Z,7.60
2022-12-09T21:37:11.376Z,7.50
2022-12-09T21:39:38.815Z,6.80
2022-12-09T21:42:09.104Z,7.30
2022-12-09T21:44:36.559Z,7.65
2022-12-09T21:47:04.024Z,7.72
2022-12-09T21:49:33.315Z,8.02
2022-12-09T21:52:00.960Z,8.97
2022-12-09T21:54:28.416Z,7.68
2022-12-09T21:56:55.853Z,7.93
2022-12-09T21:59:24.635Z,7.80
2022-12-09T22:01:52.065Z,8.00
2022-12-09T22:04:19.528Z,7.38
2022-12-09T22:06:47.356Z,7.25
2022-12-09T22:09:14.850Z,7.38
2022-12-09T22:11:42.302Z,7.57
2022-12-09T22:14:10.386Z,6.72
2022-12-09T22:16:40.257Z,6.90
2022-12-09T22:19:08.980Z,7.60
2022-12-09T22:21:36.638Z,7.35
2022-12-09T22:24:07.173Z,7.50
2022-12-09T22:26:34.690Z,7.25
2022-12-09T22:29:03.143Z,6.45
2022-12-09T22:31:31.604Z,7.43
2022-12-09T22:34:03.498Z,6.60
2022-12-09T22:36:31.222Z,6.82
2022-12-09T22:38:58.692Z,7.32
2022-12-09T22:41:27.544Z,6.30
2022-12-09T22:43:55.307Z,6.88
2022-12-09T22:46:24.303Z,6.78
2022-12-09T22:48:51.885Z,6.43
2022-12-09T22:51:22.729Z,6.88
2022-12-09T22:53:50.602Z,6.88
2022-12-09T22:56:18.181Z,7.10
2022-12-09T22:58:45.647Z,6.30
2022-12-09T23:01:13.831Z,5.88
2022-12-09T23:03:41.353Z,6.47
2022-12-09T23:06:09.035Z,6.75
2022-12-09T23:08:37.990Z,6.72
2022-12-09T23:11:06.742Z,6.70
2022-12-09T23:13:40.461Z,6.30
2022-12-09T23:16:11.687Z,6.15
2022-12-09T23:18:39.309Z,6.63
2022-12-09T23:21:09.617Z,6.30
2022-12-09T23:23:38.476Z,6.30
2022-12-09T23:26:07.433Z,7.25
2022-12-09T23:28:36.893Z,6.53
2022-12-09T23:31:04.421Z,7.00
2022-12-09T23:33:31.860Z,7.88
2022-12-09T23:35:59.291Z,7.57
2022-12-09T23:38:26.750Z,7.57
2022-12-09T23:40:55.599Z,9.13
2022-12-09T23:43:23.043Z,8.82
2022-12-09T23:45:50.480Z,8.82
2022-12-09T23:48:17.940Z,7.95
2022-12-09T23:50:45.393Z,10.30
2022-12-09T23:53:12.817Z,9.55
2022-12-09T23:55:42.296Z,8.40
2022-12-09T23:58:11.048Z,9.05
